sensor_id;sensor_type;location;lat;lon;timestamp;pressure;altitude;pressure_sealevel;temperature;humidity
30302;BME280;17111;52.130;5.028;2023-04-27T00:00:41;102247.47;;;17.76;46.02
30302;BME280;17111;52.130;5.028;2023-04-27T00:03:08;102244.75;;;17.65;46.14
30302;BME280;17111;52.130;5.028;2023-04-27T00:05:35;102249.06;;;17.55;46.45
30302;BME280;17111;52.130;5.028;2023-04-27T00:08:05;102249.78;;;17.46;46.32
30302;BME280;17111;52.130;5.028;2023-04-27T00:10:32;102243.16;;;17.39;46.72
30302;BME280;17111;52.130;5.028;2023-04-27T00:12:59;102243.66;;;17.33;46.54
30302;BME280;17111;52.130;5.028;2023-04-27T00:15:27;102242.38;;;17.25;47.45
30302;BME280;17111;52.130;5.028;2023-04-27T00:17:54;102240.06;;;17.21;46.88
30302;BME280;17111;52.130;5.028;2023-04-27T00:20:22;102239.50;;;17.16;47.57
30302;BME280;17111;52.130;5.028;2023-04-27T00:22:49;102239.84;;;17.11;47.33
30302;BME280;17111;52.130;5.028;2023-04-27T00:25:15;102233.88;;;17.08;47.90
30302;BME280;17111;52.130;5.028;2023-04-27T00:27:42;102239.47;;;17.05;47.68
30302;BME280;17111;52.130;5.028;2023-04-27T00:30:09;102236.03;;;17.02;47.83
30302;BME280;17111;52.130;5.028;2023-04-27T00:32:36;102235.41;;;16.99;47.50
30302;BME280;17111;52.130;5.028;2023-04-27T00:35:02;102232.84;;;16.97;47.27
30302;BME280;17111;52.130;5.028;2023-04-27T00:37:29;102237.38;;;16.97;47.88
30302;BME280;17111;52.130;5.028;2023-04-27T00:39:56;102244.50;;;16.96;47.51
30302;BME280;17111;52.130;5.028;2023-04-27T00:42:22;102244.50;;;16.96;47.05
30302;BME280;17111;52.130;5.028;2023-04-27T00:44:50;102241.84;;;16.96;47.35
30302;BME280;17111;52.130;5.028;2023-04-27T00:47:16;102243.56;;;16.97;48.01
30302;BME280;17111;52.130;5.028;2023-04-27T00:49:43;102240.88;;;16.97;47.05
30302;BME280;17111;52.130;5.028;2023-04-27T00:52:10;102231.31;;;17.06;47.89
30302;BME280;17111;52.130;5.028;2023-04-27T00:54:37;102222.50;;;17.17;46.94
30302;BME280;17111;52.130;5.028;2023-04-27T00:57:04;102218.13;;;17.27;47.06
30302;BME280;17111;52.130;5.028;2023-04-27T00:59:31;102231.47;;;17.40;46.98
30302;BME280;17111;52.130;5.028;2023-04-27T01:01:58;102227.13;;;17.50;46.76
30302;BME280;17111;52.130;5.028;2023-04-27T01:04:25;102225.44;;;17.60;46.19
30302;BME280;17111;52.130;5.028;2023-04-27T01:06:52;102228.28;;;17.70;46.27
30302;BME280;17111;52.130;5.028;2023-04-27T01:09:19;102229.44;;;17.79;46.18
30302;BME280;17111;52.130;5.028;2023-04-27T01:11:46;102236.06;;;17.86;45.78
30302;BME280;17111;52.130;5.028;2023-04-27T01:14:14;102239.22;;;17.91;45.64
30302;BME280;17111;52.130;5.028;2023-04-27T01:16:41;102245.94;;;17.96;45.68
30302;BME280;17111;52.130;5.028;2023-04-27T01:19:07;102239.47;;;17.99;45.74
30302;BME280;17111;52.130;5.028;2023-04-27T01:21:34;102241.94;;;18.02;45.42
30302;BME280;17111;52.130;5.028;2023-04-27T01:24:04;102235.59;;;18.03;45.24
30302;BME280;17111;52.130;5.028;2023-04-27T01:26:31;102233.66;;;18.05;45.38
30302;BME280;17111;52.130;5.028;2023-04-27T01:28:57;102230.00;;;18.06;45.22
30302;BME280;17111;52.130;5.028;2023-04-27T01:31:24;102232.78;;;18.05;45.39
30302;BME280;17111;52.130;5.028;2023-04-27T01:33:51;102223.78;;;18.06;45.07
30302;BME280;17111;52.130;5.028;2023-04-27T01:36:17;102225.59;;;18.05;45.37
30302;BME280;17111;52.130;5.028;2023-04-27T01:38:44;102223.88;;;18.04;45.11
30302;BME280;17111;52.130;5.028;2023-04-27T01:41:10;102218.50;;;18.04;45.34
30302;BME280;17111;52.130;5.028;2023-04-27T01:43:37;102216.81;;;18.03;45.39
30302;BME280;17111;52.130;5.028;2023-04-27T01:46:11;102210.59;;;18.03;45.03
30302;BME280;17111;52.130;5.028;2023-04-27T01:48:39;102218.78;;;18.01;45.12
30302;BME280;17111;52.130;5.028;2023-04-27T01:51:06;102215.34;;;17.99;45.39
30302;BME280;17111;52.130;5.028;2023-04-27T01:53:33;102215.47;;;17.97;45.01
30302;BME280;17111;52.130;5.028;2023-04-27T01:56:00;102216.69;;;17.93;45.42
30302;BME280;17111;52.130;5.028;2023-04-27T01:58:27;102215.81;;;17.93;45.27
30302;BME280;17111;52.130;5.028;2023-04-27T02:00:53;102215.94;;;17.91;45.41
30302;BME280;17111;52.130;5.028;2023-04-27T02:03:20;102208.97;;;17.89;45.05
30302;BME280;17111;52.130;5.028;2023-04-27T02:05:47;102212.63;;;17.88;45.20
30302;BME280;17111;52.130;5.028;2023-04-27T02:08:14;102224.34;;;17.87;45.01
30302;BME280;17111;52.130;5.028;2023-04-27T02:10:40;102211.06;;;17.85;45.25
30302;BME280;17111;52.130;5.028;2023-04-27T02:13:07;102210.94;;;17.87;45.24
30302;BME280;17111;52.130;5.028;2023-04-27T02:15:35;102212.00;;;17.84;44.99
30302;BME280;17111;52.130;5.028;2023-04-27T02:18:02;102213.00;;;17.83;45.35
30302;BME280;17111;52.130;5.028;2023-04-27T02:20:30;102207.75;;;17.82;45.15
30302;BME280;17111;52.130;5.028;2023-04-27T02:22:56;102209.69;;;17.80;45.03
30302;BME280;17111;52.130;5.028;2023-04-27T02:25:23;102204.56;;;17.76;45.21
30302;BME280;17111;52.130;5.028;2023-04-27T02:27:50;102208.00;;;17.79;45.15
30302;BME280;17111;52.130;5.028;2023-04-27T02:30:17;102197.03;;;17.82;45.12
30302;BME280;17111;52.130;5.028;2023-04-27T02:32:43;102194.00;;;17.86;45.30
30302;BME280;17111;52.130;5.028;2023-04-27T02:35:11;102193.75;;;17.89;45.05
30302;BME280;17111;52.130;5.028;2023-04-27T02:37:38;102193.50;;;17.92;44.93
30302;BME280;17111;52.130;5.028;2023-04-27T02:40:05;102193.16;;;17.97;45.08
30302;BME280;17111;52.130;5.028;2023-04-27T02:42:33;102196.56;;;17.99;45.15
30302;BME280;17111;52.130;5.028;2023-04-27T02:44:59;102187.53;;;18.00;45.06
30302;BME280;17111;52.130;5.028;2023-04-27T02:47:26;102185.59;;;18.02;44.95
30302;BME280;17111;52.130;5.028;2023-04-27T02:49:53;102186.56;;;18.01;44.68
30302;BME280;17111;52.130;5.028;2023-04-27T02:52:19;102189.38;;;17.99;45.01
30302;BME280;17111;52.130;5.028;2023-04-27T02:54:46;102191.19;;;17.99;45.09
30302;BME280;17111;52.130;5.028;2023-04-27T02:57:12;102187.91;;;17.95;45.23
30302;BME280;17111;52.130;5.028;2023-04-27T02:59:39;102191.66;;;17.93;44.82
30302;BME280;17111;52.130;5.028;2023-04-27T03:02:05;102196.31;;;17.91;45.00
30302;BME280;17111;52.130;5.028;2023-04-27T03:04:32;102196.53;;;17.88;44.96
30302;BME280;17111;52.130;5.028;2023-04-27T03:06:59;102200.34;;;17.85;44.70
30302;BME280;17111;52.130;5.028;2023-04-27T03:09:25;102198.88;;;17.81;44.87
30302;BME280;17111;52.130;5.028;2023-04-27T03:11:52;102199.94;;;17.79;45.07
30302;BME280;17111;52.130;5.028;2023-04-27T03:14:19;102201.34;;;17.71;44.98
30302;BME280;17111;52.130;5.028;2023-04-27T03:16:45;102199.38;;;17.62;45.28
30302;BME280;17111;52.130;5.028;2023-04-27T03:19:12;102210.56;;;17.56;45.58
30302;BME280;17111;52.130;5.028;2023-04-27T03:21:39;102204.00;;;17.49;45.58
30302;BME280;17111;52.130;5.028;2023-04-27T03:24:06;102209.06;;;17.41;45.23
30302;BME280;17111;52.130;5.028;2023-04-27T03:26:32;102201.63;;;17.33;45.81
30302;BME280;17111;52.130;5.028;2023-04-27T03:28:59;102202.28;;;17.24;45.79
30302;BME280;17111;52.130;5.028;2023-04-27T03:31:26;102201.06;;;17.17;46.30
30302;BME280;17111;52.130;5.028;2023-04-27T03:33:52;102205.16;;;17.10;45.76
30302;BME280;17111;52.130;5.028;2023-04-27T03:36:19;102197.69;;;17.02;46.25
30302;BME280;17111;52.130;5.028;2023-04-27T03:38:46;102204.59;;;16.93;46.13
30302;BME280;17111;52.130;5.028;2023-04-27T03:41:12;102205.88;;;16.88;46.59
30302;BME280;17111;52.130;5.028;2023-04-27T03:43:39;102204.66;;;16.81;46.40
30302;BME280;17111;52.130;5.028;2023-04-27T03:46:05;102204.09;;;16.75;46.35
30302;BME280;17111;52.130;5.028;2023-04-27T03:48:32;102200.03;;;16.70;46.58
30302;BME280;17111;52.130;5.028;2023-04-27T03:50:59;102205.72;;;16.65;47.09
30302;BME280;17111;52.130;5.028;2023-04-27T03:53:26;102199.94;;;16.59;47.26
30302;BME280;17111;52.130;5.028;2023-04-27T03:55:53;102209.16;;;16.54;47.05
30302;BME280;17111;52.130;5.028;2023-04-27T03:58:19;102205.97;;;16.49;47.78
30302;BME280;17111;52.130;5.028;2023-04-27T04:00:46;102208.97;;;16.45;47.05
30302;BME280;17111;52.130;5.028;2023-04-27T04:03:12;102214.53;;;16.42;47.71
30302;BME280;17111;52.130;5.028;2023-04-27T04:05:39;102221.81;;;16.40;47.48
30302;BME280;17111;52.130;5.028;2023-04-27T04:08:06;102222.25;;;16.46;48.10
30302;BME280;17111;52.130;5.028;2023-04-27T04:10:32;102213.53;;;16.56;46.89
30302;BME280;17111;52.130;5.028;2023-04-27T04:12:59;102221.56;;;16.68;46.85
30302;BME280;17111;52.130;5.028;2023-04-27T04:15:25;102224.31;;;16.80;46.85
30302;BME280;17111;52.130;5.028;2023-04-27T04:17:52;102224.28;;;16.92;46.85
30302;BME280;17111;52.130;5.028;2023-04-27T04:20:18;102225.09;;;17.06;46.41
30302;BME280;17111;52.130;5.028;2023-04-27T04:22:45;102228.81;;;17.16;46.55
30302;BME280;17111;52.130;5.028;2023-04-27T04:25:12;102226.31;;;17.25;46.14
30302;BME280;17111;52.130;5.028;2023-04-27T04:27:39;102232.66;;;17.36;46.44
30302;BME280;17111;52.130;5.028;2023-04-27T04:30:06;102232.22;;;17.42;46.26
30302;BME280;17111;52.130;5.028;2023-04-27T04:32:33;102230.88;;;17.47;45.86
30302;BME280;17111;52.130;5.028;2023-04-27T04:35:04;102227.84;;;17.52;45.55
30302;BME280;17111;52.130;5.028;2023-04-27T04:37:32;102231.28;;;17.54;45.64
30302;BME280;17111;52.130;5.028;2023-04-27T04:40:03;102230.19;;;17.57;45.45
30302;BME280;17111;52.130;5.028;2023-04-27T04:42:35;102233.84;;;17.56;45.60
30302;BME280;17111;52.130;5.028;2023-04-27T04:45:03;102240.06;;;17.56;45.43
30302;BME280;17111;52.130;5.028;2023-04-27T04:47:29;102234.81;;;17.55;45.31
30302;BME280;17111;52.130;5.028;2023-04-27T04:49:59;102229.59;;;17.53;45.56
30302;BME280;17111;52.130;5.028;2023-04-27T04:52:26;102238.59;;;17.52;45.52
30302;BME280;17111;52.130;5.028;2023-04-27T04:54:53;102235.28;;;17.48;45.55
30302;BME280;17111;52.130;5.028;2023-04-27T04:57:19;102242.72;;;17.45;45.45
30302;BME280;17111;52.130;5.028;2023-04-27T04:59:46;102247.44;;;17.41;45.60
30302;BME280;17111;52.130;5.028;2023-04-27T05:02:13;102246.06;;;17.36;45.66
30302;BME280;17111;52.130;5.028;2023-04-27T05:04:39;102244.72;;;17.30;45.97
30302;BME280;17111;52.130;5.028;2023-04-27T05:07:06;102243.31;;;17.24;46.13
30302;BME280;17111;52.130;5.028;2023-04-27T05:09:33;102239.16;;;17.20;46.44
30302;BME280;17111;52.130;5.028;2023-04-27T05:12:03;102240.38;;;17.16;45.86
30302;BME280;17111;52.130;5.028;2023-04-27T05:14:29;102242.44;;;17.13;46.33
30302;BME280;17111;52.130;5.028;2023-04-27T05:16:56;102253.16;;;17.13;46.55
30302;BME280;17111;52.130;5.028;2023-04-27T05:19:23;102253.16;;;17.13;46.29
30302;BME280;17111;52.130;5.028;2023-04-27T05:21:50;102258.53;;;17.13;46.63
30302;BME280;17111;52.130;5.028;2023-04-27T05:24:17;102254.88;;;17.14;46.63
30302;BME280;17111;52.130;5.028;2023-04-27T05:26:43;102252.91;;;17.16;46.77
30302;BME280;17111;52.130;5.028;2023-04-27T05:29:10;102260.84;;;17.17;46.42
30302;BME280;17111;52.130;5.028;2023-04-27T05:31:37;102262.34;;;17.21;46.48
30302;BME280;17111;52.130;5.028;2023-04-27T05:34:03;102258.47;;;17.25;45.83
30302;BME280;17111;52.130;5.028;2023-04-27T05:36:30;102257.13;;;17.31;45.75
30302;BME280;17111;52.130;5.028;2023-04-27T05:38:57;102259.47;;;17.36;46.54
30302;BME280;17111;52.130;5.028;2023-04-27T05:41:23;102257.53;;;17.38;45.76
30302;BME280;17111;52.130;5.028;2023-04-27T05:43:50;102257.31;;;17.41;46.11
30302;BME280;17111;52.130;5.028;2023-04-27T05:46:17;102256.34;;;17.42;46.01
30302;BME280;17111;52.130;5.028;2023-04-27T05:48:43;102250.84;;;17.43;45.86
30302;BME280;17111;52.130;5.028;2023-04-27T05:51:10;102249.03;;;17.44;45.84
30302;BME280;17111;52.130;5.028;2023-04-27T05:53:37;102243.66;;;17.44;45.79
30302;BME280;17111;52.130;5.028;2023-04-27T05:56:03;102244.41;;;17.46;45.77
30302;BME280;17111;52.130;5.028;2023-04-27T05:58:32;102240.75;;;17.47;45.63
30302;BME280;17111;52.130;5.028;2023-04-27T06:01:00;102242.47;;;17.48;45.62
30302;BME280;17111;52.130;5.028;2023-04-27T06:03:28;102245.06;;;17.49;45.29
30302;BME280;17111;52.130;5.028;2023-04-27T06:05:55;102240.53;;;17.50;44.91
30302;BME280;17111;52.130;5.028;2023-04-27T06:08:24;102251.97;;;17.52;45.27
30302;BME280;17111;52.130;5.028;2023-04-27T06:10:52;102243.94;;;17.52;45.12
30302;BME280;17111;52.130;5.028;2023-04-27T06:13:19;102245.69;;;17.53;45.42
30302;BME280;17111;52.130;5.028;2023-04-27T06:15:45;102249.06;;;17.55;45.65
30302;BME280;17111;52.130;5.028;2023-04-27T06:18:12;102250.78;;;17.56;45.31
30302;BME280;17111;52.130;5.028;2023-04-27T06:20:39;102251.63;;;17.57;46.03
30302;BME280;17111;52.130;5.028;2023-04-27T06:23:07;102264.94;;;17.58;45.62
30302;BME280;17111;52.130;5.028;2023-04-27T06:25:34;102255.69;;;17.62;46.15
30302;BME280;17111;52.130;5.028;2023-04-27T06:28:03;102261.69;;;17.66;45.77
30302;BME280;17111;52.130;5.028;2023-04-27T06:30:29;102253.50;;;17.67;45.74
30302;BME280;17111;52.130;5.028;2023-04-27T06:32:56;102251.59;;;17.69;45.35
30302;BME280;17111;52.130;5.028;2023-04-27T06:35:22;102253.28;;;17.70;45.87
30302;BME280;17111;52.130;5.028;2023-04-27T06:37:49;102252.22;;;17.73;46.14
30302;BME280;17111;52.130;5.028;2023-04-27T06:40:16;102253.91;;;17.74;45.95
30302;BME280;17111;52.130;5.028;2023-04-27T06:42:43;102260.03;;;17.76;46.27
30302;BME280;17111;52.130;5.028;2023-04-27T06:45:10;102255.50;;;17.76;46.12
30302;BME280;17111;52.130;5.028;2023-04-27T06:47:37;102261.63;;;17.79;46.48
30302;BME280;17111;52.130;5.028;2023-04-27T06:50:04;102255.28;;;17.80;45.97
30302;BME280;17111;52.130;5.028;2023-04-27T06:52:31;102246.25;;;17.81;45.73
30302;BME280;17111;52.130;5.028;2023-04-27T06:54:58;102252.50;;;17.81;46.23
30302;BME280;17111;52.130;5.028;2023-04-27T06:57:25;102244.31;;;17.83;45.85
30302;BME280;17111;52.130;5.028;2023-04-27T06:59:52;102251.38;;;17.84;45.65
30302;BME280;17111;52.130;5.028;2023-04-27T07:02:18;102249.69;;;17.83;45.66
30302;BME280;17111;52.130;5.028;2023-04-27T07:04:45;102246.03;;;17.84;45.62
30302;BME280;17111;52.130;5.028;2023-04-27T07:07:12;102254.91;;;17.84;45.61
30302;BME280;17111;52.130;5.028;2023-04-27T07:09:39;102263.81;;;17.85;45.43
30302;BME280;17111;52.130;5.028;2023-04-27T07:12:05;102261.13;;;17.85;44.94
30302;BME280;17111;52.130;5.028;2023-04-27T07:14:32;102271.88;;;17.85;45.10
30302;BME280;17111;52.130;5.028;2023-04-27T07:16:59;102266.50;;;17.85;44.92
30302;BME280;17111;52.130;5.028;2023-04-27T07:19:25;102258.59;;;17.83;44.99
30302;BME280;17111;52.130;5.028;2023-04-27T07:21:52;102255.91;;;17.83;44.63
30302;BME280;17111;52.130;5.028;2023-04-27T07:24:19;102262.25;;;17.82;44.35
30302;BME280;17111;52.130;5.028;2023-04-27T07:26:46;102263.31;;;17.80;44.28
30302;BME280;17111;52.130;5.028;2023-04-27T07:29:13;102257.97;;;17.80;44.26
30302;BME280;17111;52.130;5.028;2023-04-27T07:31:53;102254.56;;;17.78;44.30
30302;BME280;17111;52.130;5.028;2023-04-27T07:34:19;102253.81;;;17.75;43.71
30302;BME280;17111;52.130;5.028;2023-04-27T07:36:46;102251.22;;;17.74;43.99
30302;BME280;17111;52.130;5.028;2023-04-27T07:39:13;102257.56;;;17.73;44.08
30302;BME280;17111;52.130;5.028;2023-04-27T07:41:40;102254.78;;;17.74;44.14
30302;BME280;17111;52.130;5.028;2023-04-27T07:44:07;102262.03;;;17.72;44.20
30302;BME280;17111;52.130;5.028;2023-04-27T07:46:33;102262.94;;;17.73;44.33
30302;BME280;17111;52.130;5.028;2023-04-27T07:49:00;102261.09;;;17.73;43.79
30302;BME280;17111;52.130;5.028;2023-04-27T07:51:27;102263.78;;;17.73;44.27
30302;BME280;17111;52.130;5.028;2023-04-27T07:53:54;102266.47;;;17.73;43.72
30302;BME280;17111;52.130;5.028;2023-04-27T07:56:21;102263.69;;;17.75;43.70
30302;BME280;17111;52.130;5.028;2023-04-27T07:58:48;102264.53;;;17.75;43.79
30302;BME280;17111;52.130;5.028;2023-04-27T08:01:14;102265.38;;;17.76;43.91
30302;BME280;17111;52.130;5.028;2023-04-27T08:03:42;102255.50;;;17.76;43.56
30302;BME280;17111;52.130;5.028;2023-04-27T08:06:09;102260.78;;;17.78;43.83
30302;BME280;17111;52.130;5.028;2023-04-27T08:08:37;102269.66;;;17.79;43.80
30302;BME280;17111;52.130;5.028;2023-04-27T08:11:03;102269.53;;;17.80;43.62
30302;BME280;17111;52.130;5.028;2023-04-27T08:13:32;102271.00;;;17.84;43.71
30302;BME280;17111;52.130;5.028;2023-04-27T08:15:59;102264.56;;;17.87;43.70
30302;BME280;17111;52.130;5.028;2023-04-27T08:18:25;102267.97;;;17.89;43.63
30302;BME280;17111;52.130;5.028;2023-04-27T08:20:53;102268.59;;;17.92;43.54
30302;BME280;17111;52.130;5.028;2023-04-27T08:23:20;102255.09;;;17.94;43.51
30302;BME280;17111;52.130;5.028;2023-04-27T08:25:46;102257.53;;;17.97;43.71
30302;BME280;17111;52.130;5.028;2023-04-27T08:28:14;102250.97;;;18.01;43.79
30302;BME280;17111;52.130;5.028;2023-04-27T08:30:41;102243.41;;;18.06;43.77
30302;BME280;17111;52.130;5.028;2023-04-27T08:33:08;102252.78;;;18.12;43.67
30302;BME280;17111;52.130;5.028;2023-04-27T08:35:34;102256.09;;;18.15;44.31
30302;BME280;17111;52.130;5.028;2023-04-27T08:38:01;102261.09;;;18.20;43.60
30302;BME280;17111;52.130;5.028;2023-04-27T08:40:28;102257.44;;;18.21;44.53
30302;BME280;17111;52.130;5.028;2023-04-27T08:42:57;102253.78;;;18.22;44.35
30302;BME280;17111;52.130;5.028;2023-04-27T08:45:25;102243.91;;;18.22;44.22
30302;BME280;17111;52.130;5.028;2023-04-27T08:47:52;102248.28;;;18.23;45.04
30302;BME280;17111;52.130;5.028;2023-04-27T08:50:19;102251.97;;;18.22;44.50
30302;BME280;17111;52.130;5.028;2023-04-27T08:52:46;102250.13;;;18.23;44.20
30302;BME280;17111;52.130;5.028;2023-04-27T08:55:13;102250.00;;;18.24;43.99
30302;BME280;17111;52.130;5.028;2023-04-27T08:57:52;102251.59;;;18.27;44.26
30302;BME280;17111;52.130;5.028;2023-04-27T09:00:19;102255.03;;;18.29;43.53
30302;BME280;17111;52.130;5.028;2023-04-27T09:02:47;102254.03;;;18.30;43.63
30302;BME280;17111;52.130;5.028;2023-04-27T09:05:18;102251.13;;;18.33;43.66
30302;BME280;17111;52.130;5.028;2023-04-27T09:07:55;102243.78;;;18.35;44.40
30302;BME280;17111;52.130;5.028;2023-04-27T09:10:22;102252.22;;;18.42;43.95
30302;BME280;17111;52.130;5.028;2023-04-27T09:12:59;102249.28;;;18.45;44.88
30302;BME280;17111;52.130;5.028;2023-04-27T09:15:26;102244.41;;;18.50;44.19
30302;BME280;17111;52.130;5.028;2023-04-27T09:17:55;102240.88;;;18.49;44.46
30302;BME280;17111;52.130;5.028;2023-04-27T09:20:22;102244.41;;;18.50;44.74
30302;BME280;17111;52.130;5.028;2023-04-27T09:22:50;102244.28;;;18.52;44.49
30302;BME280;17111;52.130;5.028;2023-04-27T09:25:29;102241.44;;;18.53;44.79
30302;BME280;17111;52.130;5.028;2023-04-27T09:27:57;102237.81;;;18.54;44.23
30302;BME280;17111;52.130;5.028;2023-04-27T09:30:25;102236.59;;;18.58;44.79
30302;BME280;17111;52.130;5.028;2023-04-27T09:32:56;102244.38;;;18.61;44.50
30302;BME280;17111;52.130;5.028;2023-04-27T09:35:27;102244.75;;;18.68;43.97
30302;BME280;17111;52.130;5.028;2023-04-27T09:37:58;102245.41;;;18.71;43.89
30302;BME280;17111;52.130;5.028;2023-04-27T09:40:28;102241.34;;;18.77;44.15
30302;BME280;17111;52.130;5.028;2023-04-27T09:42:58;102240.00;;;18.83;44.21
30302;BME280;17111;52.130;5.028;2023-04-27T09:45:28;102232.41;;;18.88;43.95
30302;BME280;17111;52.130;5.028;2023-04-27T09:47:57;102232.88;;;18.93;44.14
30302;BME280;17111;52.130;5.028;2023-04-27T09:50:23;102238.75;;;18.98;44.42
30302;BME280;17111;52.130;5.028;2023-04-27T09:52:50;102235.69;;;19.03;44.25
30302;BME280;17111;52.130;5.028;2023-04-27T09:55:20;102230.78;;;19.08;43.63
30302;BME280;17111;52.130;5.028;2023-04-27T10:00:37;102233.44;;;19.19;43.84
30302;BME280;17111;52.130;5.028;2023-04-27T10:03:16;102227.69;;;19.23;43.42
30302;BME280;17111;52.130;5.028;2023-04-27T10:08:43;102226.66;;;19.36;43.84
30302;BME280;17111;52.130;5.028;2023-04-27T10:11:15;102227.25;;;19.39;43.34
30302;BME280;17111;52.130;5.028;2023-04-27T10:13:54;102227.84;;;19.43;43.49
30302;BME280;17111;52.130;5.028;2023-04-27T10:16:21;102222.09;;;19.47;43.63
30302;BME280;17111;52.130;5.028;2023-04-27T10:18:53;102229.31;;;19.47;43.94
30302;BME280;17111;52.130;5.028;2023-04-27T10:21:21;102216.56;;;19.49;43.85
30302;BME280;17111;52.130;5.028;2023-04-27T10:23:49;102220.09;;;19.49;43.86
30302;BME280;17111;52.130;5.028;2023-04-27T10:26:26;102228.16;;;19.49;43.54
30302;BME280;17111;52.130;5.028;2023-04-27T10:29:06;102226.22;;;19.52;43.63
30302;BME280;17111;52.130;5.028;2023-04-27T10:31:33;102218.00;;;19.53;43.48
30302;BME280;17111;52.130;5.028;2023-04-27T10:34:08;102216.91;;;19.56;43.56
30302;BME280;17111;52.130;5.028;2023-04-27T10:36:36;102217.50;;;19.59;43.35
30302;BME280;17111;52.130;5.028;2023-04-27T10:39:16;102213.59;;;19.63;43.27
30302;BME280;17111;52.130;5.028;2023-04-27T10:41:54;102220.28;;;19.69;42.77
30302;BME280;17111;52.130;5.028;2023-04-27T10:44:26;102213.53;;;19.75;42.74
30302;BME280;17111;52.130;5.028;2023-04-27T10:46:57;102211.31;;;19.80;43.04
30302;BME280;17111;52.130;5.028;2023-04-27T10:49:28;102209.06;;;19.85;42.89
30302;BME280;17111;52.130;5.028;2023-04-27T10:51:57;102213.78;;;19.92;42.96
30302;BME280;17111;52.130;5.028;2023-04-27T10:54:25;102204.91;;;20.02;42.62
30302;BME280;17111;52.130;5.028;2023-04-27T10:57:00;102215.59;;;20.13;43.05
30302;BME280;17111;52.130;5.028;2023-04-27T10:59:27;102209.28;;;20.24;42.38
30302;BME280;17111;52.130;5.028;2023-04-27T11:01:54;102199.38;;;20.34;42.25
30302;BME280;17111;52.130;5.028;2023-04-27T11:04:21;102198.16;;;20.48;42.65
30302;BME280;17111;52.130;5.028;2023-04-27T11:06:48;102196.38;;;20.58;42.13
30302;BME280;17111;52.130;5.028;2023-04-27T11:09:25;102189.34;;;20.66;41.69
30302;BME280;17111;52.130;5.028;2023-04-27T11:11:52;102181.25;;;20.76;42.19
30302;BME280;17111;52.130;5.028;2023-04-27T11:14:19;102175.19;;;20.84;41.84
30302;BME280;17111;52.130;5.028;2023-04-27T11:16:49;102174.59;;;20.90;41.28
30302;BME280;17111;52.130;5.028;2023-04-27T11:19:18;102173.06;;;20.97;41.14
30302;BME280;17111;52.130;5.028;2023-04-27T11:21:45;102168.97;;;21.03;41.72
30302;BME280;17111;52.130;5.028;2023-04-27T11:24:12;102159.28;;;21.10;40.97
30302;BME280;17111;52.130;5.028;2023-04-27T11:26:40;102161.28;;;21.17;41.08
30302;BME280;17111;52.130;5.028;2023-04-27T11:29:09;102161.41;;;21.26;41.27
30302;BME280;17111;52.130;5.028;2023-04-27T11:34:06;102152.53;;;21.35;41.15
30302;BME280;17111;52.130;5.028;2023-04-27T11:36:33;102146.97;;;21.36;41.02
30302;BME280;17111;52.130;5.028;2023-04-27T11:39:00;102156.75;;;21.37;40.70
30302;BME280;17111;52.130;5.028;2023-04-27T11:41:36;102153.22;;;21.37;40.69
30302;BME280;17111;52.130;5.028;2023-04-27T11:44:07;102149.38;;;21.39;41.13
30302;BME280;17111;52.130;5.028;2023-04-27T11:46:35;102156.19;;;21.43;41.06
30302;BME280;17111;52.130;5.028;2023-04-27T11:49:05;102147.94;;;21.45;40.64
30302;BME280;17111;52.130;5.028;2023-04-27T11:51:34;102141.56;;;21.46;40.70
30302;BME280;17111;52.130;5.028;2023-04-27T11:54:03;102146.50;;;21.51;40.42
30302;BME280;17111;52.130;5.028;2023-04-27T11:56:34;102141.44;;;21.48;40.56
30302;BME280;17111;52.130;5.028;2023-04-27T11:59:01;102141.56;;;21.46;40.30
30302;BME280;17111;52.130;5.028;2023-04-27T12:01:32;102144.97;;;21.48;40.54
30302;BME280;17111;52.130;5.028;2023-04-27T12:04:03;102143.28;;;21.47;40.29
30302;BME280;17111;52.130;5.028;2023-04-27T12:06:30;102142.56;;;21.45;40.90
30302;BME280;17111;52.130;5.028;2023-04-27T12:08:59;102134.63;;;21.43;40.57
30302;BME280;17111;52.130;5.028;2023-04-27T12:11:26;102134.75;;;21.42;40.34
30302;BME280;17111;52.130;5.028;2023-04-27T12:13:53;102135.75;;;21.41;40.55
30302;BME280;17111;52.130;5.028;2023-04-27T12:16:20;102138.59;;;21.39;40.58
30302;BME280;17111;52.130;5.028;2023-04-27T12:18:51;102134.34;;;21.37;40.39
30302;BME280;17111;52.130;5.028;2023-04-27T12:21:17;102128.09;;;21.36;40.31
30302;BME280;17111;52.130;5.028;2023-04-27T12:23:44;102124.56;;;21.36;39.98
30302;BME280;17111;52.130;5.028;2023-04-27T12:26:12;102129.94;;;21.36;40.25
30302;BME280;17111;52.130;5.028;2023-04-27T12:28:40;102132.63;;;21.36;40.04
30302;BME280;17111;52.130;5.028;2023-04-27T12:31:07;102128.94;;;21.37;39.74
30302;BME280;17111;52.130;5.028;2023-04-27T12:33:34;102116.31;;;21.37;39.89
30302;BME280;17111;52.130;5.028;2023-04-27T12:36:01;102110.78;;;21.39;39.78
30302;BME280;17111;52.130;5.028;2023-04-27T12:38:27;102113.47;;;21.39;39.92
30302;BME280;17111;52.130;5.028;2023-04-27T12:40:54;102110.78;;;21.39;39.78
30302;BME280;17111;52.130;5.028;2023-04-27T12:43:21;102113.31;;;21.40;39.40
30302;BME280;17111;52.130;5.028;2023-04-27T12:45:48;102110.78;;;21.39;39.28
30302;BME280;17111;52.130;5.028;2023-04-27T12:48:14;102109.22;;;21.36;39.61
30302;BME280;17111;52.130;5.028;2023-04-27T12:50:43;102111.19;;;21.34;39.44
30302;BME280;17111;52.130;5.028;2023-04-27T12:53:09;102111.91;;;21.27;39.92
30302;BME280;17111;52.130;5.028;2023-04-27T12:55:36;102108.91;;;21.20;39.32
30302;BME280;17111;52.130;5.028;2023-04-27T12:58:03;102096.16;;;21.12;39.05
30302;BME280;17111;52.130;5.028;2023-04-27T13:00:33;102102.09;;;21.06;39.19